Time;durP1;ratioP1;P1;durP2;ratioP2;P2;SDS_P1;SDS_P2;PMS_P1;PMS_P2;Temp;Humidity;BMP_temperature;BMP_pressure;BME280_temperature;BME280_humidity;BME280_pressure;Samples;Min_cycle;Max_cycle;Signal;HPM_P1;HPM_P2
2022/01/28 00:01:03;;;;;;;4.83;1.70;;;5.80;99.90;;;;;;5118555;28;20454;-73
2022/01/28 00:03:32;;;;;;;8.63;2.00;;;5.80;99.90;;;;;;5117698;28;20460;-71
2022/01/28 00:06:00;;;;;;;10.20;2.50;;;5.90;99.90;;;;;;5118339;28;20548;-70
2022/01/28 00:08:27;;;;;;;14.03;3.07;;;5.90;99.90;;;;;;5117847;28;20452;-73
2022/01/28 00:10:54;;;;;;;5.97;2.70;;;5.90;99.90;;;;;;5117390;28;20452;-70
2022/01/28 00:13:24;;;;;;;7.03;2.90;;;5.90;99.90;;;;;;5117245;28;20857;-71
2022/01/28 00:38:09;;;;;;;10.70;3.40;;;6.00;99.90;;;;;;5116113;28;20447;-70
2022/01/28 00:40:36;;;;;;;7.63;2.27;;;6.00;99.90;;;;;;5116142;28;20436;-71
2022/01/28 00:43:05;;;;;;;11.13;3.40;;;6.00;99.90;;;;;;5115959;28;20484;-71
2022/01/28 00:45:32;;;;;;;9.47;2.90;;;6.00;99.90;;;;;;5116548;28;20538;-70
2022/01/28 00:47:59;;;;;;;16.00;3.53;;;6.00;99.90;;;;;;5115722;28;20799;-70
2022/01/28 00:50:26;;;;;;;11.50;3.67;;;6.00;99.90;;;;;;5116284;28;20456;-71
2022/01/28 00:52:54;;;;;;;8.40;2.60;;;6.00;99.90;;;;;;5116068;28;20521;-69
2022/01/28 00:55:21;;;;;;;8.67;3.20;;;6.00;99.90;;;;;;5116913;28;20473;-70
2022/01/28 00:57:47;;;;;;;7.80;3.30;;;6.00;99.90;;;;;;5116066;28;20463;-71
2022/01/28 01:00:15;;;;;;;12.90;2.50;;;6.00;99.90;;;;;;5116292;28;20460;-70
2022/01/28 01:02:41;;;;;;;6.07;2.30;;;6.00;99.90;;;;;;5115554;28;20460;-70
2022/01/28 01:05:09;;;;;;;8.80;2.40;;;6.00;99.90;;;;;;5115886;28;20481;-70
2022/01/28 01:07:36;;;;;;;7.40;2.67;;;6.00;99.90;;;;;;5115686;28;20467;-69
2022/01/28 01:10:05;;;;;;;10.73;2.57;;;6.00;99.90;;;;;;5116078;28;20468;-69
2022/01/28 01:12:35;;;;;;;11.47;2.60;;;5.90;99.90;;;;;;5115548;28;20452;-70
2022/01/28 01:15:02;;;;;;;10.50;2.40;;;5.90;99.90;;;;;;5116078;28;20928;-70
2022/01/28 01:17:34;;;;;;;12.97;2.70;;;5.90;99.90;;;;;;5116758;28;20509;-70
2022/01/28 01:20:20;;;;;;;19.33;3.03;;;5.90;99.90;;;;;;5117915;27;20464;-70
2022/01/28 01:22:53;;;;;;;12.20;2.83;;;5.90;99.90;;;;;;5116565;28;20472;-70
2022/01/28 01:25:27;;;;;;;11.63;2.97;;;5.90;99.90;;;;;;5116045;28;20484;-70
2022/01/28 01:27:56;;;;;;;7.93;2.43;;;5.90;99.90;;;;;;5115544;28;20437;-71
2022/01/28 01:30:24;;;;;;;15.13;3.07;;;5.90;99.90;;;;;;5115173;28;20970;-70
2022/01/28 01:32:51;;;;;;;10.70;2.63;;;6.00;99.90;;;;;;5115400;28;20471;-70
2022/01/28 01:35:18;;;;;;;15.43;3.27;;;6.00;99.90;;;;;;5115195;28;20452;-70
2022/01/28 01:37:48;;;;;;;16.30;3.40;;;6.00;99.90;;;;;;5115440;28;20456;-70
2022/01/28 01:40:20;;;;;;;7.80;2.20;;;5.90;99.90;;;;;;5116872;28;20467;-70
2022/01/28 01:42:52;;;;;;;10.53;2.43;;;5.90;99.90;;;;;;5118211;28;20793;-70
2022/01/28 01:53:35;;;;;;;16.50;3.60;;;5.90;99.90;;;;;;5116030;28;20416;-70
2022/01/28 01:56:02;;;;;;;12.60;2.70;;;5.90;99.90;;;;;;5127653;28;20461;-70
2022/01/28 01:58:33;;;;;;;6.23;2.50;;;5.90;99.90;;;;;;5123176;28;20452;-70
2022/01/28 02:01:01;;;;;;;15.83;2.47;;;5.90;99.90;;;;;;5115279;28;20437;-71
2022/01/28 02:03:28;;;;;;;12.17;2.73;;;5.90;99.90;;;;;;5115531;28;20501;-70
2022/01/28 02:05:57;;;;;;;13.27;2.60;;;5.90;99.90;;;;;;5115288;28;20460;-71
2022/01/28 02:08:25;;;;;;;12.67;3.20;;;5.90;99.90;;;;;;5115088;28;20887;-71
2022/01/28 02:10:56;;;;;;;14.87;2.00;;;5.80;99.90;;;;;;5114992;28;20463;-70
2022/01/28 02:13:23;;;;;;;11.93;2.40;;;5.80;99.90;;;;;;5115596;28;20976;-70
2022/01/28 02:15:52;;;;;;;7.67;2.20;;;5.80;99.90;;;;;;5115168;28;20468;-70
2022/01/28 02:18:19;;;;;;;8.10;2.57;;;5.80;99.90;;;;;;5114972;28;20463;-70
2022/01/28 02:20:49;;;;;;;11.87;2.73;;;5.70;99.90;;;;;;5115037;28;20485;-71
2022/01/28 02:23:16;;;;;;;8.07;2.30;;;5.80;99.90;;;;;;5114878;28;20441;-69
2022/01/28 02:25:43;;;;;;;12.10;3.33;;;5.80;99.90;;;;;;5115152;28;20452;-71
2022/01/28 02:28:13;;;;;;;18.17;2.90;;;5.80;99.90;;;;;;5114782;28;20825;-71
2022/01/28 02:30:40;;;;;;;5.03;2.10;;;5.80;99.90;;;;;;5114977;28;20795;-71
2022/01/28 02:33:10;;;;;;;14.67;3.27;;;5.80;99.90;;;;;;5114826;28;20460;-70
2022/01/28 02:35:38;;;;;;;12.20;2.10;;;5.80;99.90;;;;;;5115441;28;20441;-70
2022/01/28 02:38:07;;;;;;;14.20;2.63;;;5.80;99.90;;;;;;5114458;28;20471;-70
2022/01/28 02:40:33;;;;;;;12.50;2.63;;;5.80;99.90;;;;;;5114447;28;20940;-70
2022/01/28 02:43:05;;;;;;;6.93;2.13;;;5.80;99.90;;;;;;5114468;28;20457;-70
2022/01/28 02:45:34;;;;;;;10.40;2.37;;;5.80;99.90;;;;;;5114650;28;20476;-71
2022/01/28 02:48:05;;;;;;;7.83;2.40;;;5.80;99.90;;;;;;5114588;28;20491;-69
2022/01/28 02:50:39;;;;;;;7.30;2.00;;;5.80;99.90;;;;;;5117892;28;20501;-70
2022/01/28 02:53:09;;;;;;;9.00;2.30;;;5.70;99.90;;;;;;5118108;28;20455;-70
2022/01/28 02:55:40;;;;;;;10.87;3.73;;;5.70;99.90;;;;;;5117903;28;20501;-70
2022/01/28 02:58:22;;;;;;;11.33;3.13;;;5.70;99.90;;;;;;5117932;28;20497;-70
2022/01/28 03:00:50;;;;;;;13.50;2.20;;;5.70;99.90;;;;;;5118235;28;20437;-70
2022/01/28 03:03:19;;;;;;;17.00;3.40;;;5.70;99.90;;;;;;5117935;28;20467;-69
2022/01/28 03:05:46;;;;;;;10.70;2.87;;;5.60;99.90;;;;;;5118076;28;20476;-70
2022/01/28 03:08:14;;;;;;;6.73;2.50;;;5.60;99.90;;;;;;5118041;28;20453;-70
2022/01/28 03:10:57;;;;;;;15.83;3.97;;;5.60;99.90;;;;;;5117764;28;20452;-69
2022/01/28 03:13:46;;;;;;;9.07;2.50;;;5.60;99.90;;;;;;5118067;28;20787;-70
2022/01/28 03:16:16;;;;;;;17.13;3.40;;;5.60;99.90;;;;;;5118060;28;20489;-70
2022/01/28 03:18:51;;;;;;;8.17;2.43;;;5.50;99.90;;;;;;5117696;28;20456;-69
2022/01/28 03:21:38;;;;;;;5.80;2.37;;;5.60;99.90;;;;;;5118289;28;20440;-71
2022/01/28 03:24:08;;;;;;;12.40;2.77;;;5.60;99.90;;;;;;5117628;28;20993;-70
2022/01/28 03:26:35;;;;;;;11.27;2.53;;;5.60;99.90;;;;;;5117569;28;20447;-69
2022/01/28 03:29:02;;;;;;;11.53;2.70;;;5.70;99.90;;;;;;5118432;28;20452;-70
2022/01/28 03:31:29;;;;;;;11.70;2.50;;;5.70;99.90;;;;;;5122813;28;20461;-69
2022/01/28 03:33:56;;;;;;;20.13;3.10;;;5.70;99.90;;;;;;5124099;28;20449;-69
2022/01/28 03:36:24;;;;;;;14.47;2.97;;;5.60;99.90;;;;;;5123448;28;20452;-69
2022/01/28 03:38:50;;;;;;;16.80;3.00;;;5.60;99.90;;;;;;5123139;28;20788;-69
2022/01/28 03:41:18;;;;;;;14.33;2.70;;;5.70;99.90;;;;;;5123073;28;20456;-69
2022/01/28 03:43:45;;;;;;;14.00;3.07;;;5.70;99.90;;;;;;5122814;28;20799;-72
2022/01/28 03:46:13;;;;;;;17.90;2.57;;;5.70;99.90;;;;;;5122722;28;20458;-70
2022/01/28 03:48:40;;;;;;;12.97;3.10;;;5.70;99.90;;;;;;5118168;28;20451;-69
2022/01/28 03:51:07;;;;;;;9.47;3.07;;;5.70;99.90;;;;;;5117369;28;20453;-70
2022/01/28 03:53:33;;;;;;;14.00;3.07;;;5.70;99.90;;;;;;5117405;28;20466;-69
2022/01/28 03:56:00;;;;;;;8.50;2.33;;;5.70;99.90;;;;;;5117523;28;20448;-69
2022/01/28 03:58:28;;;;;;;10.37;2.77;;;5.70;99.90;;;;;;5117354;28;20457;-69
2022/01/28 04:00:56;;;;;;;12.63;2.70;;;5.70;99.90;;;;;;5115942;28;20564;-71
2022/01/28 04:03:41;;;;;;;14.60;2.27;;;5.70;99.90;;;;;;5117145;28;20456;-70
2022/01/28 04:11:27;;;;;;;14.27;2.50;;;5.70;99.90;;;;;;5116556;28;21011;-70
2022/01/28 04:11:54;;;;;;;13.53;2.30;;;5.70;99.90;;;;;;5116590;28;20423;-70
2022/01/28 04:14:37;;;;;;;12.33;2.13;;;5.70;99.90;;;;;;5117097;28;20510;-70
2022/01/28 04:17:20;;;;;;;18.87;3.07;;;5.70;99.90;;;;;;5117139;28;20452;-70
2022/01/28 04:19:48;;;;;;;7.03;2.03;;;5.70;99.90;;;;;;5116939;28;20462;-70
2022/01/28 04:22:14;;;;;;;13.70;3.53;;;5.70;99.90;;;;;;5116762;28;20460;-69
2022/01/28 04:24:41;;;;;;;9.07;2.50;;;5.70;99.90;;;;;;5116238;28;20469;-69
2022/01/28 04:27:08;;;;;;;10.63;2.60;;;5.80;99.90;;;;;;5116606;28;20537;-70
2022/01/28 04:29:36;;;;;;;18.23;2.50;;;5.80;99.90;;;;;;5116235;28;20478;-70
2022/01/28 04:32:03;;;;;;;6.60;2.73;;;5.80;99.90;;;;;;5116253;28;20456;-69
2022/01/28 04:34:30;;;;;;;11.13;2.67;;;5.80;99.90;;;;;;5116262;28;20453;-70
2022/01/28 04:37:05;;;;;;;9.93;3.50;;;5.80;99.90;;;;;;5116161;28;21012;-70
2022/01/28 04:39:39;;;;;;;7.13;2.10;;;5.80;99.90;;;;;;5116417;28;20441;-70
2022/01/28 04:42:15;;;;;;;14.17;2.87;;;5.80;99.90;;;;;;5115890;27;20493;-71
2022/01/28 04:44:55;;;;;;;12.03;2.53;;;5.80;99.90;;;;;;5116042;28;20464;-71
2022/01/28 04:47:28;;;;;;;13.90;2.80;;;5.80;99.90;;;;;;5115925;28;20484;-71
2022/01/28 04:50:04;;;;;;;9.43;2.20;;;5.80;99.90;;;;;;5116046;28;20494;-70
2022/01/28 04:55:24;;;;;;;10.30;3.00;;;5.90;99.90;;;;;;5107058;27;20519;-70
2022/01/28 04:58:04;;;;;;;8.90;2.53;;;5.90;99.90;;;;;;5115863;28;20432;-70
2022/01/28 05:00:43;;;;;;;9.60;2.47;;;5.80;99.90;;;;;;5115797;28;20497;-71
2022/01/28 05:03:34;;;;;;;10.80;2.70;;;5.90;99.90;;;;;;5118570;28;20466;-70
2022/01/28 05:09:38;;;;;;;8.70;2.30;;;5.80;99.90;;;;;;5120915;28;20444;-70
2022/01/28 05:12:42;;;;;;;6.77;2.77;;;5.90;99.90;;;;;;5116142;28;20440;-70
2022/01/28 05:26:27;;;;;;;15.87;2.70;;;5.80;99.90;;;;;;5115271;28;20571;-70
2022/01/28 05:28:54;;;;;;;11.37;2.93;;;5.90;99.90;;;;;;5115697;28;20559;-69
2022/01/28 05:31:21;;;;;;;15.60;2.63;;;5.90;99.90;;;;;;5115929;28;20496;-69
2022/01/28 05:33:50;;;;;;;6.60;3.07;;;5.90;99.90;;;;;;5115806;28;20456;-71
2022/01/28 05:36:17;;;;;;;12.90;3.00;;;5.90;99.90;;;;;;5116283;28;20458;-69
2022/01/28 05:38:46;;;;;;;10.57;2.70;;;5.90;99.90;;;;;;5115756;28;20468;-69
2022/01/28 05:41:13;;;;;;;11.20;2.30;;;5.90;99.90;;;;;;5116049;28;20479;-70
2022/01/28 05:43:40;;;;;;;11.00;2.60;;;5.90;99.90;;;;;;5115017;28;20464;-70
2022/01/28 05:46:08;;;;;;;11.90;3.20;;;5.90;99.90;;;;;;5114809;28;20483;-70
2022/01/28 05:48:34;;;;;;;11.90;2.40;;;5.90;99.90;;;;;;5116051;28;20498;-69
2022/01/28 05:51:02;;;;;;;14.10;3.57;;;5.90;99.90;;;;;;5115934;28;20763;-70
2022/01/28 05:53:29;;;;;;;29.07;10.43;;;5.90;99.90;;;;;;5116262;28;20453;-71
2022/01/28 05:55:56;;;;;;;11.23;2.57;;;5.90;99.90;;;;;;5115720;28;20457;-71
2022/01/28 05:58:22;;;;;;;12.10;2.60;;;5.90;99.90;;;;;;5115532;28;20464;-70
2022/01/28 06:00:49;;;;;;;8.33;2.40;;;5.90;99.90;;;;;;5115701;28;20795;-70
2022/01/28 06:03:16;;;;;;;14.33;3.37;;;5.90;99.90;;;;;;5116040;28;20467;-72
2022/01/28 06:05:44;;;;;;;8.03;2.80;;;5.90;99.90;;;;;;5117185;28;20486;-71
2022/01/28 06:08:12;;;;;;;14.63;2.67;;;5.90;99.90;;;;;;5122255;28;20547;-71
2022/01/28 06:10:39;;;;;;;14.33;3.77;;;5.90;99.90;;;;;;5123125;28;20452;-70
2022/01/28 06:13:07;;;;;;;12.63;2.50;;;5.90;99.90;;;;;;5121347;28;20460;-70
2022/01/28 06:15:34;;;;;;;9.40;2.50;;;6.00;99.90;;;;;;5121658;28;20483;-69
2022/01/28 06:18:01;;;;;;;15.23;2.60;;;6.00;99.90;;;;;;5121331;28;20453;-70
2022/01/28 06:20:27;;;;;;;13.80;2.80;;;6.00;99.90;;;;;;5121176;28;20459;-70
2022/01/28 06:22:57;;;;;;;12.30;3.70;;;6.00;99.90;;;;;;5117887;28;20479;-70
2022/01/28 06:25:25;;;;;;;16.90;3.90;;;6.00;99.90;;;;;;5118101;28;20472;-70
2022/01/28 06:27:52;;;;;;;8.10;2.77;;;5.90;99.90;;;;;;5123774;28;20453;-70
2022/01/28 06:30:20;;;;;;;20.57;3.30;;;5.90;99.90;;;;;;5125637;28;20460;-70
2022/01/28 06:32:47;;;;;;;12.03;3.00;;;5.90;99.90;;;;;;5120363;28;20456;-70
2022/01/28 06:35:14;;;;;;;13.10;2.67;;;5.90;99.90;;;;;;5119214;28;20543;-70
2022/01/28 06:37:43;;;;;;;13.80;4.00;;;5.90;99.90;;;;;;5119324;28;20467;-71
2022/01/28 06:40:13;;;;;;;7.80;2.63;;;5.90;99.90;;;;;;5119100;28;20479;-71
2022/01/28 06:42:42;;;;;;;9.90;2.30;;;5.90;99.90;;;;;;5118655;27;20459;-70
2022/01/28 06:45:09;;;;;;;17.00;2.77;;;5.90;99.90;;;;;;5118725;28;20487;-72
2022/01/28 06:47:36;;;;;;;12.30;2.30;;;5.90;99.90;;;;;;5118377;28;20483;-70
2022/01/28 06:50:05;;;;;;;11.20;2.80;;;5.90;99.90;;;;;;5118520;28;20462;-70
2022/01/28 06:52:31;;;;;;;11.57;3.30;;;5.90;99.90;;;;;;5118511;28;20513;-71
2022/01/28 06:54:58;;;;;;;12.10;3.83;;;5.90;99.90;;;;;;5118334;28;20467;-71
2022/01/28 06:57:25;;;;;;;11.83;3.03;;;5.90;99.90;;;;;;5117936;28;20494;-73
2022/01/28 06:59:53;;;;;;;9.63;2.13;;;5.90;99.90;;;;;;5118345;28;20457;-72
2022/01/28 07:02:20;;;;;;;11.10;3.47;;;5.90;99.90;;;;;;5118270;28;20756;-71
2022/01/28 07:04:46;;;;;;;15.50;3.30;;;5.80;99.90;;;;;;5118492;27;20476;-71
2022/01/28 07:07:14;;;;;;;14.47;3.00;;;5.80;99.90;;;;;;5118421;28;20464;-71
2022/01/28 07:09:40;;;;;;;10.23;2.67;;;5.80;99.90;;;;;;5118249;28;20529;-70
2022/01/28 07:12:08;;;;;;;10.70;3.23;;;5.80;99.90;;;;;;5118199;27;20456;-70
2022/01/28 07:14:35;;;;;;;14.17;3.20;;;5.80;99.90;;;;;;5118798;28;20456;-70
2022/01/28 07:17:04;;;;;;;9.97;2.43;;;5.80;99.90;;;;;;5118149;28;20546;-70
2022/01/28 07:19:30;;;;;;;16.87;3.37;;;5.70;99.90;;;;;;5117978;28;20884;-71
2022/01/28 07:21:58;;;;;;;12.07;3.57;;;5.70;99.90;;;;;;5118343;28;20471;-72
2022/01/28 07:24:24;;;;;;;11.63;3.10;;;5.70;99.90;;;;;;5119149;28;20540;-71
2022/01/28 07:26:52;;;;;;;21.67;4.60;;;5.70;99.90;;;;;;5117950;27;20487;-71
2022/01/28 07:29:19;;;;;;;9.40;3.27;;;5.60;99.90;;;;;;5117927;28;20452;-70
2022/01/28 07:31:46;;;;;;;12.07;2.80;;;5.60;99.90;;;;;;5118107;27;20946;-70
2022/01/28 07:34:14;;;;;;;17.40;3.70;;;5.50;99.90;;;;;;5118361;28;20981;-70
2022/01/28 07:36:41;;;;;;;13.10;3.37;;;5.50;99.90;;;;;;5117916;28;20463;-70
2022/01/28 07:39:09;;;;;;;12.10;3.20;;;5.40;99.90;;;;;;5118279;28;20467;-71
2022/01/28 07:41:35;;;;;;;14.33;3.50;;;5.40;99.90;;;;;;5119652;28;20783;-70
2022/01/28 07:44:02;;;;;;;16.20;4.80;;;5.40;99.90;;;;;;5118293;28;20452;-70
2022/01/28 07:46:29;;;;;;;15.07;3.13;;;5.30;99.90;;;;;;5117151;28;20480;-71
2022/01/28 07:48:56;;;;;;;14.00;3.73;;;5.30;99.90;;;;;;5117819;27;20460;-72
2022/01/28 07:51:24;;;;;;;14.10;3.17;;;5.30;99.90;;;;;;5118149;28;20772;-70
2022/01/28 07:53:51;;;;;;;12.10;2.90;;;5.30;99.90;;;;;;5117717;28;20920;-71
2022/01/28 07:56:19;;;;;;;14.67;3.27;;;5.30;99.90;;;;;;5117334;27;20461;-71
2022/01/28 07:58:45;;;;;;;14.53;3.93;;;5.20;99.90;;;;;;5117399;28;20584;-70
2022/01/28 08:01:12;;;;;;;11.67;3.50;;;5.20;99.90;;;;;;5117516;28;20472;-72
2022/01/28 08:03:39;;;;;;;10.87;2.77;;;5.10;99.90;;;;;;5116966;28;20930;-70
2022/01/28 08:06:06;;;;;;;14.87;3.17;;;5.10;99.90;;;;;;5117341;28;20480;-71
2022/01/28 08:08:34;;;;;;;15.17;3.50;;;5.00;99.90;;;;;;5117384;28;20881;-71
2022/01/28 08:11:01;;;;;;;13.50;3.33;;;5.10;99.90;;;;;;5116717;28;20467;-71
2022/01/28 08:13:27;;;;;;;8.70;2.70;;;5.00;99.90;;;;;;5117106;28;20467;-71
2022/01/28 08:15:54;;;;;;;18.70;4.13;;;5.10;99.90;;;;;;5117053;28;20475;-71
2022/01/28 08:18:21;;;;;;;13.00;3.47;;;5.10;99.90;;;;;;5116907;28;20452;-71
2022/01/28 08:20:47;;;;;;;14.83;2.90;;;5.10;99.90;;;;;;5116735;27;20466;-72
2022/01/28 08:23:14;;;;;;;15.80;3.37;;;5.10;99.90;;;;;;5117191;28;20850;-72
2022/01/28 08:25:43;;;;;;;12.67;4.00;;;5.00;99.90;;;;;;5122604;28;20487;-72
2022/01/28 08:28:09;;;;;;;16.20;4.23;;;5.00;99.90;;;;;;5118331;28;20463;-72
2022/01/28 08:30:38;;;;;;;11.63;3.27;;;5.10;99.90;;;;;;5116152;28;20931;-70
2022/01/28 08:33:05;;;;;;;22.10;3.30;;;5.10;99.90;;;;;;5116736;27;20499;-72
2022/01/28 08:35:35;;;;;;;16.87;4.03;;;5.10;99.90;;;;;;5116302;28;20452;-70
2022/01/28 08:38:01;;;;;;;17.37;4.40;;;5.10;99.90;;;;;;5116828;28;20481;-71
2022/01/28 08:40:29;;;;;;;21.63;3.40;;;5.10;99.90;;;;;;5116221;28;20467;-71
2022/01/28 08:42:58;;;;;;;13.70;2.80;;;5.10;99.90;;;;;;5116422;28;21007;-70
2022/01/28 08:45:25;;;;;;;16.60;3.17;;;5.20;99.90;;;;;;5116354;28;20478;-70
2022/01/28 08:47:51;;;;;;;23.27;4.00;;;5.10;99.90;;;;;;5115641;28;20971;-69
2022/01/28 08:50:18;;;;;;;15.27;3.10;;;5.10;99.90;;;;;;5116483;27;20533;-70
2022/01/28 08:52:46;;;;;;;16.03;3.00;;;5.10;99.90;;;;;;5116197;28;20811;-71
2022/01/28 08:55:15;;;;;;;17.50;3.60;;;5.20;99.90;;;;;;5115879;28;20457;-70
2022/01/28 08:57:43;;;;;;;23.60;4.13;;;5.20;99.90;;;;;;5116082;28;20456;-71
2022/01/28 09:00:13;;;;;;;18.43;4.50;;;5.20;99.90;;;;;;5115516;28;20913;-69
2022/01/28 09:02:41;;;;;;;14.83;3.37;;;5.20;99.90;;;;;;5116455;28;20442;-69
2022/01/28 09:05:08;;;;;;;10.93;3.97;;;5.30;99.90;;;;;;5115875;28;20448;-69
2022/01/28 09:07:35;;;;;;;16.43;5.40;;;5.20;99.90;;;;;;5115916;28;20487;-70
2022/01/28 09:10:07;;;;;;;20.73;4.73;;;5.20;99.90;;;;;;5115339;28;20920;-70
2022/01/28 09:12:39;;;;;;;15.67;4.27;;;5.20;99.90;;;;;;5115938;28;20778;-70
2022/01/28 09:15:07;;;;;;;15.50;4.93;;;5.30;99.90;;;;;;5115836;28;20488;-69
2022/01/28 09:17:36;;;;;;;17.53;4.40;;;5.30;99.90;;;;;;5115952;28;20456;-70
2022/01/28 09:20:03;;;;;;;23.20;5.00;;;5.30;99.90;;;;;;5115672;27;20456;-70
2022/01/28 09:22:30;;;;;;;14.10;3.00;;;5.30;99.90;;;;;;5115848;28;20525;-70
2022/01/28 09:24:57;;;;;;;11.07;3.30;;;5.40;99.90;;;;;;5115753;28;20460;-70
2022/01/28 09:27:23;;;;;;;14.43;3.27;;;5.40;99.90;;;;;;5115086;28;20476;-70
2022/01/28 09:29:50;;;;;;;10.23;3.27;;;5.40;99.90;;;;;;5115490;28;20479;-69
2022/01/28 09:32:17;;;;;;;8.90;3.00;;;5.40;99.90;;;;;;5115261;28;20467;-71
2022/01/28 09:34:45;;;;;;;18.57;3.30;;;5.50;99.90;;;;;;5115348;28;20453;-70
2022/01/28 09:37:13;;;;;;;12.97;3.43;;;5.50;99.90;;;;;;5114999;28;20998;-70
2022/01/28 09:39:43;;;;;;;15.23;3.50;;;5.50;99.90;;;;;;5115247;28;20456;-70
2022/01/28 09:42:14;;;;;;;17.57;4.27;;;5.50;99.90;;;;;;5115102;28;20457;-71
2022/01/28 09:44:42;;;;;;;15.10;4.17;;;5.50;99.90;;;;;;5115089;28;20451;-71
2022/01/28 09:47:10;;;;;;;17.47;3.60;;;5.60;99.90;;;;;;5115172;28;20579;-70
2022/01/28 09:49:37;;;;;;;14.37;2.63;;;5.60;99.90;;;;;;5115361;28;20452;-69
2022/01/28 09:52:08;;;;;;;9.20;2.70;;;5.60;99.90;;;;;;5115169;28;20909;-71
2022/01/28 09:54:35;;;;;;;15.77;3.90;;;5.60;99.90;;;;;;5115525;28;20436;-69
2022/01/28 09:57:03;;;;;;;14.33;2.90;;;5.70;99.90;;;;;;5114674;28;20453;-72
2022/01/28 09:59:30;;;;;;;15.43;3.90;;;5.90;99.90;;;;;;5116674;28;20486;-70
2022/01/28 10:01:57;;;;;;;17.47;3.07;;;6.00;99.90;;;;;;5119227;28;20463;-70
2022/01/28 10:04:24;;;;;;;12.87;3.03;;;6.10;99.90;;;;;;5119012;28;20769;-71
2022/01/28 10:06:51;;;;;;;10.37;2.93;;;6.20;99.90;;;;;;5120752;28;20939;-70
2022/01/28 10:09:20;;;;;;;13.30;3.13;;;6.30;99.90;;;;;;5119284;27;20464;-71
2022/01/28 10:11:52;;;;;;;12.90;2.77;;;6.30;99.90;;;;;;5118981;28;20920;-71
2022/01/28 10:14:22;;;;;;;20.37;3.13;;;6.30;99.90;;;;;;5119318;28;20535;-70
2022/01/28 10:16:57;;;;;;;9.07;2.97;;;6.20;99.90;;;;;;5118800;28;20463;-70
2022/01/28 10:19:26;;;;;;;15.80;2.97;;;6.20;99.90;;;;;;5119305;28;20451;-71
2022/01/28 10:21:54;;;;;;;13.27;2.97;;;6.30;99.90;;;;;;5119286;27;20842;-71
2022/01/28 10:24:24;;;;;;;11.80;2.87;;;6.10;99.90;;;;;;5119405;28;20471;-69
2022/01/28 10:26:52;;;;;;;17.00;3.40;;;6.10;99.90;;;;;;5119362;27;20557;-71
2022/01/28 10:29:23;;;;;;;10.33;3.00;;;6.10;99.90;;;;;;5120069;28;20771;-71
2022/01/28 10:31:55;;;;;;;9.53;3.00;;;6.10;99.90;;;;;;5119167;28;20459;-71
2022/01/28 10:34:28;;;;;;;18.37;3.83;;;6.20;99.90;;;;;;5119280;28;20457;-70
2022/01/28 10:37:13;;;;;;;10.30;3.03;;;6.20;99.90;;;;;;5119077;27;20437;-71
2022/01/28 10:39:44;;;;;;;18.53;3.70;;;6.10;99.90;;;;;;5118647;28;20443;-72
2022/01/28 10:42:12;;;;;;;15.43;4.10;;;6.10;99.90;;;;;;5119145;28;20440;-71
2022/01/28 10:44:54;;;;;;;16.40;4.23;;;6.10;99.90;;;;;;5119027;28;20788;-71
2022/01/28 10:47:33;;;;;;;6.17;2.43;;;6.10;99.90;;;;;;5118784;28;20488;-72
2022/01/28 10:50:00;;;;;;;11.97;2.83;;;6.20;99.90;;;;;;5118633;28;20451;-71
2022/01/28 10:52:33;;;;;;;8.93;2.90;;;6.10;99.90;;;;;;5118884;28;20453;-71
2022/01/28 10:55:02;;;;;;;11.60;2.90;;;6.10;99.90;;;;;;5118114;28;20486;-71
2022/01/28 10:57:30;;;;;;;10.07;3.03;;;6.20;99.90;;;;;;5118434;28;20444;-71
2022/01/28 10:59:58;;;;;;;8.00;3.57;;;6.30;99.90;;;;;;5118294;28;20611;-72
2022/01/28 11:02:26;;;;;;;12.33;3.50;;;6.20;99.90;;;;;;5117988;28;20456;-70
2022/01/28 11:04:56;;;;;;;11.83;3.50;;;6.20;99.90;;;;;;5118390;28;20951;-70
2022/01/28 11:07:23;;;;;;;10.57;3.13;;;6.30;99.90;;;;;;5118002;27;20474;-70
2022/01/28 11:09:50;;;;;;;11.27;2.90;;;6.30;99.90;;;;;;5117501;28;20501;-70
2022/01/28 11:12:18;;;;;;;16.07;3.23;;;6.30;99.90;;;;;;5117886;27;20479;-70
2022/01/28 11:14:45;;;;;;;9.00;2.10;;;6.30;99.90;;;;;;5119347;28;20456;-69
2022/01/28 11:17:16;;;;;;;10.27;2.90;;;6.20;99.90;;;;;;5118687;28;20506;-70
2022/01/28 11:19:46;;;;;;;7.00;2.47;;;6.20;99.90;;;;;;5119345;27;20451;-69
2022/01/28 11:22:34;;;;;;;13.27;3.13;;;6.30;99.90;;;;;;5118999;27;20913;-70
2022/01/28 11:25:16;;;;;;;15.40;3.07;;;6.40;99.90;;;;;;5118078;28;20754;-71
2022/01/28 11:27:48;;;;;;;9.60;2.77;;;6.60;99.90;;;;;;5119200;28;20468;-71
2022/01/28 11:30:22;;;;;;;9.10;2.30;;;6.60;99.90;;;;;;5119033;28;20437;-71
2022/01/28 11:33:01;;;;;;;7.17;2.20;;;6.70;99.90;;;;;;5118850;28;20441;-72
2022/01/28 11:35:39;;;;;;;12.70;2.80;;;6.80;99.90;;;;;;5118880;28;20479;-72
2022/01/28 11:38:37;;;;;;;7.83;2.50;;;6.90;99.90;;;;;;5119586;28;20901;-71
2022/01/28 11:41:09;;;;;;;12.70;3.10;;;7.00;99.90;;;;;;5119312;28;20448;-71
2022/01/28 11:43:46;;;;;;;6.33;2.10;;;7.00;99.90;;;;;;5118050;28;20460;-70
2022/01/28 11:46:19;;;;;;;7.90;2.50;;;6.90;99.90;;;;;;5117239;28;20468;-70
2022/01/28 11:49:20;;;;;;;14.37;4.40;;;6.90;99.90;;;;;;5118127;27;20437;-72
2022/01/28 11:51:47;;;;;;;8.57;2.60;;;6.80;99.90;;;;;;5106407;28;20480;-70
2022/01/28 11:54:15;;;;;;;8.10;2.47;;;6.90;99.90;;;;;;5117222;28;20448;-70
2022/01/28 11:57:13;;;;;;;12.07;2.53;;;6.90;99.90;;;;;;5117358;28;20448;-70
2022/01/28 11:59:41;;;;;;;12.63;2.70;;;6.90;99.90;;;;;;5117610;28;20496;-70
2022/01/28 12:02:11;;;;;;;16.23;4.73;;;6.90;99.90;;;;;;5117677;28;20753;-70
2022/01/28 12:04:40;;;;;;;7.47;2.40;;;6.90;99.90;;;;;;5116541;28;20444;-69
2022/01/28 12:07:13;;;;;;;8.33;2.90;;;6.90;99.90;;;;;;5117133;28;20480;-70
2022/01/28 12:09:40;;;;;;;10.77;2.90;;;7.00;99.90;;;;;;5117179;28;20785;-71
2022/01/28 12:12:10;;;;;;;12.37;2.50;;;7.20;99.90;;;;;;5116988;28;20828;-71
2022/01/28 12:15:08;;;;;;;7.53;2.23;;;7.30;99.90;;;;;;5117473;28;20459;-70
2022/01/28 12:17:43;;;;;;;10.60;2.43;;;7.70;99.90;;;;;;5117438;28;20528;-71
2022/01/28 12:20:23;;;;;;;10.70;2.17;;;7.90;99.90;;;;;;5117299;28;20451;-71
2022/01/28 12:23:03;;;;;;;11.47;2.73;;;8.00;99.90;;;;;;5115605;28;20764;-71
2022/01/28 12:26:00;;;;;;;11.23;2.20;;;8.10;99.90;;;;;;5116878;28;20440;-72
2022/01/28 12:28:41;;;;;;;9.07;2.30;;;8.00;99.90;;;;;;5103647;28;20523;-72
2022/01/28 12:31:14;;;;;;;8.80;2.07;;;8.00;99.90;;;;;;5116909;28;20741;-71
2022/01/28 12:33:43;;;;;;;7.23;2.27;;;7.90;99.90;;;;;;5116846;28;20452;-71
2022/01/28 12:36:12;;;;;;;12.03;3.57;;;7.80;99.90;;;;;;5116549;28;20456;-71
2022/01/28 12:38:43;;;;;;;7.50;1.93;;;7.60;99.90;;;;;;5117438;27;20448;-71
2022/01/28 12:41:11;;;;;;;6.80;2.33;;;7.60;99.90;;;;;;5117218;28;20485;-71
2022/01/28 12:43:39;;;;;;;8.00;2.27;;;7.70;99.90;;;;;;5116694;28;20456;-71
2022/01/28 12:46:08;;;;;;;13.17;2.73;;;8.00;99.90;;;;;;5116024;28;20456;-71
2022/01/28 12:48:37;;;;;;;8.10;2.33;;;8.80;99.90;;;;;;5116336;28;20815;-71
2022/01/28 12:51:04;;;;;;;6.93;2.10;;;9.50;99.90;;;;;;5116911;28;20452;-71
2022/01/28 12:53:39;;;;;;;7.13;1.97;;;10.20;99.90;;;;;;5116792;28;20452;-70
2022/01/28 12:56:07;;;;;;;5.97;1.87;;;10.50;99.90;;;;;;5117707;28;20456;-71
2022/01/28 12:58:36;;;;;;;8.83;2.07;;;10.60;99.90;;;;;;5118108;28;20452;-70
2022/01/28 13:01:07;;;;;;;7.20;2.27;;;10.20;99.90;;;;;;5118271;28;20453;-70
2022/01/28 13:03:38;;;;;;;5.80;1.83;;;10.20;99.90;;;;;;5119351;28;20463;-70
2022/01/28 13:09:12;;;;;;;6.37;2.13;;;11.50;99.90;;;;;;5121287;28;20989;-70
2022/01/28 13:11:43;;;;;;;7.53;2.00;;;11.50;99.90;;;;;;5122453;28;20443;-70
2022/01/28 13:14:11;;;;;;;5.73;1.90;;;11.40;99.90;;;;;;5121943;28;20449;-70
2022/01/28 13:16:39;;;;;;;8.03;2.67;;;11.50;99.90;;;;;;5121521;28;20476;-70
2022/01/28 13:19:08;;;;;;;10.40;3.33;;;11.90;99.90;;;;;;5122204;28;20476;-71
2022/01/28 13:21:36;;;;;;;7.00;2.10;;;12.00;99.90;;;;;;5122209;28;20452;-71
2022/01/28 13:24:11;;;;;;;4.97;2.03;;;11.80;99.90;;;;;;5119581;27;20445;-70
2022/01/28 13:26:53;;;;;;;7.90;1.90;;;11.40;99.90;;;;;;5115642;28;20441;-71
2022/01/28 13:29:29;;;;;;;5.57;1.90;;;11.20;99.90;;;;;;5116955;28;20448;-70
2022/01/28 13:31:57;;;;;;;3.83;1.97;;;11.20;99.90;;;;;;5115805;28;20468;-71
2022/01/28 13:34:25;;;;;;;4.87;2.03;;;11.10;99.90;;;;;;5115685;28;20452;-71
2022/01/28 13:36:55;;;;;;;5.43;2.33;;;10.90;99.90;;;;;;5115792;28;20456;-70
2022/01/28 13:39:27;;;;;;;18.10;2.83;;;11.10;99.90;;;;;;5116555;28;20452;-70
2022/01/28 13:42:08;;;;;;;7.27;2.20;;;11.70;99.90;;;;;;5115788;28;20535;-70
2022/01/28 13:44:37;;;;;;;7.60;2.37;;;12.10;99.90;;;;;;5116012;28;20441;-70
2022/01/28 13:47:04;;;;;;;6.80;2.50;;;12.40;99.90;;;;;;5115274;28;20569;-71
2022/01/28 13:49:33;;;;;;;6.53;1.83;;;12.80;99.90;;;;;;5116203;28;20780;-70
2022/01/28 13:52:10;;;;;;;5.40;2.10;;;12.90;99.90;;;;;;5116510;28;20935;-71
2022/01/28 13:54:37;;;;;;;8.03;1.90;;;12.80;99.90;;;;;;5115834;28;20440;-72
2022/01/28 13:57:08;;;;;;;5.60;2.00;;;12.80;99.90;;;;;;5115977;28;20457;-72
2022/01/28 13:59:37;;;;;;;7.43;1.73;;;12.80;99.90;;;;;;5115934;28;20441;-71